Time;durP1;ratioP1;P1;durP2;ratioP2;P2;SDS_P1;SDS_P2;PMS_P1;PMS_P2;Temp;Humidity;BMP_temperature;BMP_pressure;BME280_temperature;BME280_humidity;BME280_pressure;Samples;Min_cycle;Max_cycle;Signal;HPM_P1;HPM_P2
2021/12/07 00:01:21;;;;;;;;;;;;;;;24.59;59.61;95823.13;606598;234;64919;-71
2021/12/07 00:03:49;;;;;;;;;;;;;;;24.59;61.76;95823.91;606567;234;63009;-71
2021/12/07 00:06:16;;;;;;;;;;;;;;;24.59;63.71;95826.59;606608;234;65108;-71
2021/12/07 00:08:44;;;;;;;;;;;;;;;24.56;66.15;95837.20;606493;234;65078;-71
2021/12/07 00:11:12;;;;;;;;;;;;;;;24.58;59.89;95835.77;606584;234;62993;-71
2021/12/07 00:13:40;;;;;;;;;;;;;;;24.57;64.65;95834.17;606569;231;67241;-71
2021/12/07 00:16:09;;;;;;;;;;;;;;;24.56;60.74;95846.04;606575;234;67135;-71
2021/12/07 00:18:37;;;;;;;;;;;;;;;24.54;62.09;95834.04;606578;234;65067;-71
2021/12/07 00:21:06;;;;;;;;;;;;;;;24.53;60.12;95838.63;606532;234;67221;-71
2021/12/07 00:23:33;;;;;;;;;;;;;;;24.55;61.41;95840.98;606584;234;64935;-71
2021/12/07 00:26:01;;;;;;;;;;;;;;;24.51;65.79;95824.73;606611;234;62749;-71
2021/12/07 00:28:28;;;;;;;;;;;;;;;24.50;60.11;95828.53;606559;234;65989;-71
2021/12/07 00:31:03;;;;;;;;;;;;;;;24.53;61.66;95830.57;606620;234;66065;-67
2021/12/07 00:35:54;;;;;;;;;;;;;;;24.50;65.17;95838.47;606539;234;64713;-67
2021/12/07 00:38:24;;;;;;;;;;;;;;;24.50;60.75;95828.53;606614;234;67032;-67
2021/12/07 00:40:52;;;;;;;;;;;;;;;24.52;61.62;95814.77;606633;234;64886;-67
2021/12/07 00:43:20;;;;;;;;;;;;;;;24.50;59.94;95817.79;606566;234;64913;-67
2021/12/07 00:45:49;;;;;;;;;;;;;;;24.50;65.64;95825.84;606607;234;64778;-67
2021/12/07 00:48:17;;;;;;;;;;;;;;;24.49;59.89;95828.84;606555;234;65165;-67
2021/12/07 00:50:46;;;;;;;;;;;;;;;24.50;62.88;95833.91;606539;234;64546;-67
2021/12/07 00:53:13;;;;;;;;;;;;;;;24.47;61.16;95836.42;607365;233;67725;-67
2021/12/07 00:55:43;;;;;;;;;;;;;;;24.46;61.33;95822.22;608181;233;62525;-67
2021/12/07 00:58:18;;;;;;;;;;;;;;;24.47;64.36;95815.75;608172;233;66498;-67
2021/12/07 01:00:44;;;;;;;;;;;;;;;24.45;60.91;95812.59;608065;233;64730;-67
2021/12/07 01:03:13;;;;;;;;;;;;;;;24.43;62.04;95809.41;608139;233;65662;-67
2021/12/07 01:05:47;;;;;;;;;;;;;;;24.42;63.67;95802.47;608230;233;64556;-67
2021/12/07 01:08:19;;;;;;;;;;;;;;;24.43;66.25;95797.88;607886;233;64795;-71
2021/12/07 01:24:41;;;;;;;;;;;;;;;24.41;59.83;95784.77;608170;233;67072;-71
2021/12/07 01:27:10;;;;;;;;;;;;;;;24.40;66.00;95764.41;608191;233;65299;-67
2021/12/07 01:29:40;;;;;;;;;;;;;;;24.38;65.73;95758.56;608193;233;66942;-67
2021/12/07 01:32:31;;;;;;;;;;;;;;;24.39;61.70;95754.78;608128;233;64739;-68
2021/12/07 01:59:35;;;;;;;;;;;;;;;24.31;62.09;95753.71;608181;233;65924;-67
2021/12/07 02:02:05;;;;;;;;;;;;;;;24.32;61.90;95751.80;608206;233;64240;-67
2021/12/07 02:04:32;;;;;;;;;;;;;;;24.30;64.10;95733.33;608206;233;64768;-67
2021/12/07 02:07:00;;;;;;;;;;;;;;;24.30;62.47;95732.54;608234;233;63857;-67
2021/12/07 02:09:29;;;;;;;;;;;;;;;24.31;65.30;95728.77;608179;233;67640;-67
2021/12/07 02:12:02;;;;;;;;;;;;;;;24.29;63.18;95736.34;608203;233;66670;-67
2021/12/07 02:14:30;;;;;;;;;;;;;;;24.29;61.03;95725.61;608226;233;65082;-67
2021/12/07 02:16:59;;;;;;;;;;;;;;;24.29;60.95;95734.44;608211;233;66760;-71
2021/12/07 02:19:27;;;;;;;;;;;;;;;24.29;62.10;95730.98;608246;233;67201;-71
2021/12/07 02:21:55;;;;;;;;;;;;;;;24.29;60.17;95725.61;608224;233;62961;-71
2021/12/07 02:24:25;;;;;;;;;;;;;;;24.29;65.52;95739.03;608088;233;45845;-71
2021/12/07 02:26:52;;;;;;;;;;;;;;;24.27;60.07;95723.23;608208;233;64741;-71
2021/12/07 02:29:21;;;;;;;;;;;;;;;24.29;60.37;95725.61;608183;233;65621;-71
2021/12/07 02:31:49;;;;;;;;;;;;;;;24.29;63.28;95725.61;608214;233;64854;-71
2021/12/07 02:34:17;;;;;;;;;;;;;;;24.28;60.28;95718.64;608259;233;65523;-71
2021/12/07 02:36:45;;;;;;;;;;;;;;;24.29;63.96;95720.23;608166;233;64917;-71
2021/12/07 02:39:13;;;;;;;;;;;;;;;24.27;60.81;95717.08;608220;233;65577;-71
2021/12/07 02:41:41;;;;;;;;;;;;;;;24.25;60.47;95713.92;608212;233;66885;-71
2021/12/07 02:44:09;;;;;;;;;;;;;;;24.26;60.06;95707.47;608190;233;62595;-71
2021/12/07 02:46:38;;;;;;;;;;;;;;;24.26;60.42;95694.83;608233;233;64558;-71
2021/12/07 02:49:07;;;;;;;;;;;;;;;24.25;60.17;95679.81;608167;233;67128;-71
2021/12/07 02:51:35;;;;;;;;;;;;;;;24.24;60.75;95675.56;608176;233;65784;-71
2021/12/07 02:54:04;;;;;;;;;;;;;;;24.23;61.96;95684.73;606836;233;67359;-71
2021/12/07 02:56:32;;;;;;;;;;;;;;;24.23;64.12;95682.05;606613;234;66853;-71
2021/12/07 02:59:03;;;;;;;;;;;;;;;24.20;61.42;95684.58;606648;234;62463;-71
2021/12/07 03:01:33;;;;;;;;;;;;;;;24.20;60.93;95680.02;606654;234;67045;-71
2021/12/07 03:04:13;;;;;;;;;;;;;;;24.20;62.78;95671.16;606584;233;67153;-71
2021/12/07 03:09:59;;;;;;;;;;;;;;;24.18;65.76;95671.50;606600;231;64336;-71
2021/12/07 03:26:11;;;;;;;;;;;;;;;24.14;60.29;95674.05;606642;234;64209;-71
2021/12/07 03:28:45;;;;;;;;;;;;;;;24.13;61.11;95672.45;606633;233;46358;-71
2021/12/07 03:31:14;;;;;;;;;;;;;;;24.12;60.13;95681.63;606601;234;65633;-71
2021/12/07 03:33:43;;;;;;;;;;;;;;;24.12;62.63;95673.58;606624;234;64952;-71
2021/12/07 03:36:12;;;;;;;;;;;;;;;24.12;64.21;95680.84;606608;234;66628;-67
2021/12/07 03:38:40;;;;;;;;;;;;;;;24.10;64.03;95680.37;606601;234;62520;-67
2021/12/07 03:41:09;;;;;;;;;;;;;;;24.09;61.04;95684.16;606640;234;67164;-67
2021/12/07 03:43:38;;;;;;;;;;;;;;;24.08;66.27;95693.33;606609;234;65106;-67
2021/12/07 03:46:06;;;;;;;;;;;;;;;24.07;64.56;95691.76;606608;234;65859;-67
2021/12/07 03:48:35;;;;;;;;;;;;;;;24.06;61.07;95688.30;606617;234;67447;-67
2021/12/07 03:51:03;;;;;;;;;;;;;;;24.08;64.58;95690.64;606557;234;66509;-67
2021/12/07 03:53:30;;;;;;;;;;;;;;;24.05;62.57;95694.75;607413;233;65036;-67
2021/12/07 03:55:58;;;;;;;;;;;;;;;24.05;62.30;95700.13;608176;233;66989;-67
2021/12/07 03:58:26;;;;;;;;;;;;;;;24.04;67.08;95700.46;608185;233;66784;-67
2021/12/07 04:00:54;;;;;;;;;;;;;;;24.02;65.65;95700.77;608206;233;62672;-67
2021/12/07 04:03:22;;;;;;;;;;;;;;;23.99;68.11;95693.36;608165;233;67244;-67
2021/12/07 04:05:55;;;;;;;;;;;;;;;23.97;67.34;95692.11;608233;233;64682;-67
2021/12/07 04:08:22;;;;;;;;;;;;;;;23.99;67.81;95692.58;608094;233;65320;-67
2021/12/07 04:10:50;;;;;;;;;;;;;;;23.98;63.65;95689.12;608177;233;67700;-67
2021/12/07 04:13:17;;;;;;;;;;;;;;;23.98;62.99;95689.12;608171;233;66841;-67
2021/12/07 04:15:45;;;;;;;;;;;;;;;23.98;67.17;95686.44;608181;233;63110;-67
2021/12/07 04:18:13;;;;;;;;;;;;;;;23.97;65.82;95686.75;608200;233;64649;-67
2021/12/07 04:20:40;;;;;;;;;;;;;;;23.95;63.35;95673.64;608257;233;66425;-67
2021/12/07 04:23:08;;;;;;;;;;;;;;;23.95;63.94;95679.00;608145;233;62493;-67
2021/12/07 04:25:36;;;;;;;;;;;;;;;23.95;68.09;95679.00;608193;233;64712;-67
2021/12/07 04:28:04;;;;;;;;;;;;;;;23.94;67.51;95682.80;608161;233;64853;-67
2021/12/07 04:30:34;;;;;;;;;;;;;;;23.92;68.13;95685.80;608126;233;63079;-67
2021/12/07 04:33:02;;;;;;;;;;;;;;;23.91;61.85;95686.14;608235;233;66959;-67
2021/12/07 04:35:29;;;;;;;;;;;;;;;23.94;64.77;95688.17;608167;233;66821;-67
2021/12/07 04:37:57;;;;;;;;;;;;;;;23.92;67.92;95685.02;608174;233;65051;-67
2021/12/07 04:40:26;;;;;;;;;;;;;;;23.92;66.54;95683.12;608177;233;66837;-67
2021/12/07 04:42:54;;;;;;;;;;;;;;;23.92;67.92;95687.70;608172;233;64807;-67
2021/12/07 04:48:24;;;;;;;;;;;;;;;;;;608119;233;66730;-68
2021/12/07 04:57:36;;;;;;;;;;;;;;;23.91;69.11;95683.45;607337;233;67012;-68
2021/12/07 04:58:28;;;;;;;;;;;;;;;23.86;67.28;95675.58;608152;233;66952;-71
2021/12/07 05:00:56;;;;;;;;;;;;;;;23.87;67.82;95677.14;608169;233;65075;-71
2021/12/07 05:03:26;;;;;;;;;;;;;;;23.83;66.30;95682.38;608213;233;67057;-71
2021/12/07 05:05:54;;;;;;;;;;;;;;;23.84;67.45;95677.78;608151;233;67530;-71
2021/12/07 05:08:35;;;;;;;;;;;;;;;23.84;64.13;95683.16;608165;233;64902;-71
2021/12/07 05:13:52;;;;;;;;;;;;;;;23.82;67.27;95667.39;608159;233;66867;-72
2021/12/07 05:16:24;;;;;;;;;;;;;;;23.82;63.65;95674.66;607289;233;67789;-72
2021/12/07 05:18:41;;;;;;;;;;;;;;;23.81;64.34;95681.90;607369;233;67231;-71
2021/12/07 05:24:04;;;;;;;;;;;;;;;23.80;68.38;95674.97;608168;233;62981;-71
2021/12/07 05:39:52;;;;;;;;;;;;;;;23.77;67.56;95682.88;608166;233;65187;-68
2021/12/07 05:42:25;;;;;;;;;;;;;;;23.78;68.94;95687.13;608160;233;67369;-68
2021/12/07 05:44:50;;;;;;;;;;;;;;;23.76;66.76;95697.38;608016;233;67245;-68
2021/12/07 05:47:17;;;;;;;;;;;;;;;23.78;70.18;95706.69;608189;233;65330;-68
2021/12/07 05:49:45;;;;;;;;;;;;;;;23.75;66.35;95696.60;608154;233;67136;-68
2021/12/07 05:52:12;;;;;;;;;;;;;;;23.75;67.57;95680.51;608163;233;66714;-68
2021/12/07 05:54:40;;;;;;;;;;;;;;;23.76;69.27;95684.75;608130;233;66018;-68
2021/12/07 05:57:07;;;;;;;;;;;;;;;23.76;69.95;95668.66;608200;233;67071;-68
2021/12/07 05:59:35;;;;;;;;;;;;;;;23.76;68.95;95670.56;608191;233;64798;-68
2021/12/07 06:02:03;;;;;;;;;;;;;;;23.77;66.69;95680.20;608190;233;63839;-68
2021/12/07 06:04:31;;;;;;;;;;;;;;;23.77;69.05;95682.88;608212;233;66963;-68
2021/12/07 06:06:58;;;;;;;;;;;;;;;23.75;67.65;95666.31;608191;233;64675;-68
2021/12/07 06:09:26;;;;;;;;;;;;;;;23.77;70.95;95658.73;608161;233;62678;-68
2021/12/07 06:11:54;;;;;;;;;;;;;;;23.78;70.72;95662.98;608139;233;65111;-68
2021/12/07 06:14:29;;;;;;;;;;;;;;;23.76;69.61;95654.46;608162;233;66876;-68
2021/12/07 06:16:51;;;;;;;;;;;;;;;23.78;70.65;95668.34;607814;233;64986;-67
2021/12/07 06:19:19;;;;;;;;;;;;;;;23.77;69.88;95661.42;608042;233;67047;-67
2021/12/07 06:21:46;;;;;;;;;;;;;;;23.77;69.20;95656.05;607932;233;66888;-67
2021/12/07 06:24:14;;;;;;;;;;;;;;;23.76;70.28;95665.97;607881;233;65205;-67
2021/12/07 06:26:41;;;;;;;;;;;;;;;23.76;70.72;95662.51;608085;233;67997;-70
2021/12/07 06:29:08;;;;;;;;;;;;;;;23.77;70.08;95672.15;608132;233;66875;-70
2021/12/07 06:31:36;;;;;;;;;;;;;;;23.76;71.12;95676.70;608010;233;64889;-70
2021/12/07 06:34:04;;;;;;;;;;;;;;;23.77;69.68;95680.20;608106;233;67046;-70
2021/12/07 06:36:31;;;;;;;;;;;;;;;23.77;70.38;95678.30;608080;233;68633;-70
2021/12/07 06:38:58;;;;;;;;;;;;;;;23.78;69.84;95689.81;608021;233;62747;-70
2021/12/07 06:41:26;;;;;;;;;;;;;;;23.78;70.71;95682.55;607639;233;64920;-70
2021/12/07 06:43:53;;;;;;;;;;;;;;;23.79;70.62;95678.77;608013;233;64944;-70
2021/12/07 06:46:21;;;;;;;;;;;;;;;23.78;69.84;95681.77;608180;233;62927;-71
2021/12/07 06:48:49;;;;;;;;;;;;;;;23.79;70.38;95683.33;608101;233;67630;-70
2021/12/07 06:51:17;;;;;;;;;;;;;;;23.80;70.51;95674.19;608140;233;66837;-71
2021/12/07 06:53:44;;;;;;;;;;;;;;;23.80;69.83;95688.38;606810;233;63016;-70
2021/12/07 06:56:12;;;;;;;;;;;;;;;23.81;70.87;95686.48;606614;234;64807;-69
2021/12/07 06:58:39;;;;;;;;;;;;;;;23.81;69.88;95673.07;606523;234;65407;-71
2021/12/07 07:01:08;;;;;;;;;;;;;;;23.81;70.74;95673.85;605902;234;63134;-67
2021/12/07 07:03:35;;;;;;;;;;;;;;;23.82;70.04;95666.61;606384;234;68238;-68
2021/12/07 07:06:04;;;;;;;;;;;;;;;23.83;69.58;95677.01;606520;234;67066;-67
2021/12/07 07:08:36;;;;;;;;;;;;;;;23.83;69.95;95674.33;606446;234;65236;-67
2021/12/07 07:11:01;;;;;;;;;;;;;;;23.85;67.41;95671.33;606279;234;67078;-67
2021/12/07 07:13:28;;;;;;;;;;;;;;;23.85;69.71;95674.02;606517;234;66874;-67
2021/12/07 07:15:56;;;;;;;;;;;;;;;23.86;70.78;95670.21;606459;234;64930;-67
2021/12/07 07:18:23;;;;;;;;;;;;;;;23.85;70.79;95668.65;606515;233;66475;-68
2021/12/07 07:20:51;;;;;;;;;;;;;;;23.86;69.53;95665.63;606505;234;67026;-68
2021/12/07 07:23:19;;;;;;;;;;;;;;;23.86;69.12;95660.27;606433;234;65080;-67
2021/12/07 07:25:46;;;;;;;;;;;;;;;23.90;67.39;95657.75;606527;234;64896;-66
2021/12/07 07:28:13;;;;;;;;;;;;;;;;;;606454;234;65054;-68
2021/12/07 07:30:47;;;;;;;;;;;;;;;23.91;67.60;95641.31;606287;231;46328;-69
2021/12/07 07:33:17;;;;;;;;;;;;;;;23.92;66.30;95639.41;606516;233;48210;-69
2021/12/07 07:35:47;;;;;;;;;;;;;;;23.94;67.78;95639.88;606243;234;47988;-67
2021/12/07 07:38:15;;;;;;;;;;;;;;;23.96;65.56;95634.20;606451;234;66205;-66
2021/12/07 07:40:46;;;;;;;;;;;;;;;23.98;68.66;95634.64;606488;234;66840;-67
2021/12/07 07:43:16;;;;;;;;;;;;;;;23.97;67.33;95633.86;606453;234;66827;-66
2021/12/07 07:45:47;;;;;;;;;;;;;;;23.98;67.56;95630.09;606353;234;42615;-68
2021/12/07 07:48:15;;;;;;;;;;;;;;;23.99;65.38;95636.23;606452;234;64619;-67
2021/12/07 07:50:42;;;;;;;;;;;;;;;23.99;68.70;95620.13;606195;234;66859;-68
2021/12/07 07:53:10;;;;;;;;;;;;;;;24.02;65.46;95635.58;605614;234;64909;-67
2021/12/07 07:55:39;;;;;;;;;;;;;;;24.03;66.25;95631.78;604556;234;66851;-68
2021/12/07 07:58:08;;;;;;;;;;;;;;;24.03;66.37;95616.45;604602;232;66692;-66
2021/12/07 08:00:35;;;;;;;;;;;;;;;24.05;64.07;95616.92;604607;234;65054;-67
2021/12/07 08:03:03;;;;;;;;;;;;;;;24.04;67.31;95618.05;604558;234;66966;-66
2021/12/07 08:05:31;;;;;;;;;;;;;;;24.05;65.10;95616.92;604508;234;64784;-68
2021/12/07 08:07:58;;;;;;;;;;;;;;;24.05;66.95;95614.24;604442;234;62759;-66
2021/12/07 08:10:29;;;;;;;;;;;;;;;24.04;64.93;95615.37;603880;234;65083;-67
2021/12/07 08:12:57;;;;;;;;;;;;;;;24.06;65.28;95623.89;603489;234;67428;-67
2021/12/07 08:15:26;;;;;;;;;;;;;;;24.08;65.62;95645.02;604528;232;65172;-67
2021/12/07 08:17:53;;;;;;;;;;;;;;;24.08;64.77;95643.11;604567;234;67393;-68
2021/12/07 08:20:22;;;;;;;;;;;;;;;24.10;64.94;95638.22;604548;234;64831;-68
2021/12/07 08:22:50;;;;;;;;;;;;;;;24.11;64.26;95629.05;604558;234;65281;-67
2021/12/07 08:25:17;;;;;;;;;;;;;;;24.13;63.15;95628.73;604503;234;67196;-69
2021/12/07 08:27:45;;;;;;;;;;;;;;;24.14;63.94;95638.34;604415;234;67023;-64
2021/12/07 08:30:14;;;;;;;;;;;;;;;24.14;63.24;95638.34;604488;232;66185;-68
2021/12/07 08:32:45;;;;;;;;;;;;;;;24.15;64.20;95634.57;604551;234;66757;-67
2021/12/07 08:35:11;;;;;;;;;;;;;;;24.18;62.52;95638.50;604366;234;66956;-69
2021/12/07 08:37:38;;;;;;;;;;;;;;;24.25;59.12;95644.13;604539;234;64927;-72
2021/12/07 08:40:06;;;;;;;;;;;;;;;24.35;57.37;95649.91;604460;234;67310;-66
2021/12/07 08:42:34;;;;;;;;;;;;;;;24.38;57.97;95645.79;604532;234;67124;-68
2021/12/07 08:45:01;;;;;;;;;;;;;;;24.37;60.69;95652.28;604577;234;63877;-69
2021/12/07 08:47:30;;;;;;;;;;;;;;;24.33;62.06;95659.41;604443;234;67250;-68
2021/12/07 08:49:57;;;;;;;;;;;;;;;24.30;61.08;95663.52;604574;234;67069;-67
2021/12/07 08:52:25;;;;;;;;;;;;;;;24.30;61.44;95663.52;604485;234;65204;-67
2021/12/07 09:00:08;;;;;;;;;;;;;;;24.46;59.06;95654.94;604487;234;62834;-67
2021/12/07 09:02:36;;;;;;;;;;;;;;;24.47;57.92;95641.20;604445;232;67270;-67
2021/12/07 09:05:03;;;;;;;;;;;;;;;24.48;58.95;95650.03;604534;234;67190;-74
2021/12/07 09:07:31;;;;;;;;;;;;;;;24.47;59.50;95657.31;604492;234;65038;-70
2021/12/07 09:09:59;;;;;;;;;;;;;;;24.48;60.72;95656.19;604509;234;67170;-67
2021/12/07 09:12:27;;;;;;;;;;;;;;;24.48;58.85;95642.76;604531;234;67061;-73
2021/12/07 09:14:54;;;;;;;;;;;;;;;24.49;59.63;95647.01;604521;234;63035;-69
2021/12/07 09:17:22;;;;;;;;;;;;;;;24.51;59.32;95631.36;604420;234;64939;-67
2021/12/07 09:19:49;;;;;;;;;;;;;;;24.53;59.25;95639.11;604659;234;64576;-70
2021/12/07 09:22:17;;;;;;;;;;;;;;;24.54;59.63;95630.70;604586;234;62992;-68
2021/12/07 09:24:44;;;;;;;;;;;;;;;24.55;59.67;95631.48;604529;234;67239;-66
2021/12/07 09:27:13;;;;;;;;;;;;;;;24.55;59.14;95629.61;604292;234;67229;-66
2021/12/07 09:29:40;;;;;;;;;;;;;;;24.58;58.42;95631.64;604427;234;64882;-71
2021/12/07 09:32:08;;;;;;;;;;;;;;;24.59;58.05;95622.45;604565;234;67181;-68
2021/12/07 09:34:35;;;;;;;;;;;;;;;24.61;58.37;95614.08;604559;234;67111;-72
2021/12/07 09:37:03;;;;;;;;;;;;;;;24.62;58.34;95609.48;604527;234;64977;-63
2021/12/07 09:39:30;;;;;;;;;;;;;;;24.63;58.84;95608.36;604519;234;67020;-67
2021/12/07 09:41:58;;;;;;;;;;;;;;;24.64;58.02;95608.05;604564;234;67024;-71
2021/12/07 09:44:25;;;;;;;;;;;;;;;24.64;57.97;95602.68;604549;234;65001;-67
2021/12/07 09:46:53;;;;;;;;;;;;;;;24.65;57.93;95606.92;604445;234;67021;-67
2021/12/07 09:49:20;;;;;;;;;;;;;;;24.70;57.86;95612.10;604580;234;67091;-68
2021/12/07 09:51:48;;;;;;;;;;;;;;;24.72;58.95;95615.25;604488;234;65186;-66
2021/12/07 09:54:16;;;;;;;;;;;;;;;24.73;58.42;95605.29;604505;234;67518;-65
2021/12/07 09:56:43;;;;;;;;;;;;;;;24.74;57.83;95599.57;604603;234;67108;-66
2021/12/07 09:59:11;;;;;;;;;;;;;;;24.74;59.96;95598.79;603931;232;62925;-66
2021/12/07 10:01:40;;;;;;;;;;;;;;;24.70;58.17;95600.58;603599;234;67114;-66
2021/12/07 10:04:07;;;;;;;;;;;;;;;24.70;59.78;95608.63;604570;234;65038;-67
2021/12/07 10:06:35;;;;;;;;;;;;;;;24.71;56.86;95610.20;604351;234;63818;-69
2021/12/07 10:09:04;;;;;;;;;;;;;;;24.71;57.48;95602.14;604633;234;65733;-72
2021/12/07 10:11:32;;;;;;;;;;;;;;;24.70;57.63;95595.98;604663;234;67116;-65
2021/12/07 10:13:59;;;;;;;;;;;;;;;24.71;57.52;95594.08;604517;232;64879;-65
2021/12/07 10:16:27;;;;;;;;;;;;;;;24.72;57.57;95590.30;604523;234;67236;-65
2021/12/07 10:18:54;;;;;;;;;;;;;;;24.73;57.29;95597.23;604433;233;64810;-65
2021/12/07 10:21:24;;;;;;;;;;;;;;;24.73;57.27;95597.23;603258;233;62787;-65
2021/12/07 10:23:58;;;;;;;;;;;;;;;24.73;57.56;95599.91;603194;233;67134;-65
2021/12/07 10:26:30;;;;;;;;;;;;;;;24.74;57.32;95590.73;600160;236;64957;-65
2021/12/07 10:28:59;;;;;;;;;;;;;;;24.74;57.81;95582.67;600223;236;65075;-65
2021/12/07 10:31:28;;;;;;;;;;;;;;;24.74;58.31;95579.98;600150;236;67054;-66
2021/12/07 10:34:00;;;;;;;;;;;;;;;24.74;58.58;95590.73;600099;236;66903;-65
2021/12/07 10:36:32;;;;;;;;;;;;;;;24.74;57.89;95582.67;600239;236;63019;-66
2021/12/07 10:39:01;;;;;;;;;;;;;;;24.74;58.34;95574.61;600180;236;67302;-65
2021/12/07 10:41:31;;;;;;;;;;;;;;;24.75;57.51;95581.58;600037;236;67454;-65
2021/12/07 10:44:01;;;;;;;;;;;;;;;24.75;58.41;95568.14;600269;236;62719;-65
2021/12/07 10:46:30;;;;;;;;;;;;;;;24.75;57.72;95570.83;600241;236;67187;-64
2021/12/07 10:49:11;;;;;;;;;;;;;;;24.76;57.19;95567.02;600186;236;67060;-60
2021/12/07 10:51:40;;;;;;;;;;;;;;;24.76;57.82;95569.70;590740;236;64997;-59
2021/12/07 10:54:07;;;;;;;;;;;;;;;24.76;57.66;95575.08;605540;234;64958;-59
2021/12/07 10:56:36;;;;;;;;;;;;;;;24.77;58.06;95569.39;606456;234;67080;-59
2021/12/07 10:59:06;;;;;;;;;;;;;;;24.77;58.06;95573.95;606526;234;63008;-59
2021/12/07 11:01:34;;;;;;;;;;;;;;;24.75;58.35;95571.61;606441;234;66948;-59
2021/12/07 11:04:19;;;;;;;;;;;;;;;24.77;57.98;95571.27;606507;234;66925;-59
2021/12/07 11:07:06;;;;;;;;;;;;;;;24.77;58.42;95569.39;598172;236;64902;-60
2021/12/07 11:09:45;;;;;;;;;;;;;;;24.77;58.98;95569.39;604873;234;67600;-60
2021/12/07 11:12:16;;;;;;;;;;;;;;;24.79;57.72;95569.04;606562;233;49089;-60
2021/12/07 11:14:50;;;;;;;;;;;;;;;24.80;58.03;95567.94;606503;234;65217;-59
2021/12/07 11:17:19;;;;;;;;;;;;;;;24.80;57.68;95557.97;606487;234;67366;-59
2021/12/07 11:19:46;;;;;;;;;;;;;;;24.81;58.06;95559.53;606196;234;67911;-60
2021/12/07 11:22:15;;;;;;;;;;;;;;;24.82;58.08;95565.69;606211;234;65217;-60
2021/12/07 11:24:44;;;;;;;;;;;;;;;24.83;57.74;95559.22;605970;234;64997;-59
2021/12/07 11:30:00;;;;;;;;;;;;;;;24.87;58.29;95556.64;606507;234;62980;-58
2021/12/07 11:32:28;;;;;;;;;;;;;;;24.87;57.87;95552.05;606223;234;65724;-59
2021/12/07 11:34:56;;;;;;;;;;;;;;;24.88;57.36;95550.95;606506;234;67296;-59
2021/12/07 11:37:23;;;;;;;;;;;;;;;24.90;57.58;95551.38;606570;234;65049;-59
2021/12/07 11:39:53;;;;;;;;;;;;;;;24.92;57.27;95551.84;606508;234;64895;-59
2021/12/07 11:42:33;;;;;;;;;;;;;;;24.95;57.53;95547.71;606447;234;67132;-66
2021/12/07 11:45:06;;;;;;;;;;;;;;;24.95;57.34;95547.71;606277;234;63814;-66
2021/12/07 11:47:36;;;;;;;;;;;;;;;24.95;57.32;95553.87;606361;234;67067;-66
2021/12/07 11:50:19;;;;;;;;;;;;;;;24.97;57.10;95551.64;606543;234;66516;-66
2021/12/07 11:52:49;;;;;;;;;;;;;;;24.98;57.14;95553.20;606445;234;65136;-66
2021/12/07 11:55:17;;;;;;;;;;;;;;;25.00;57.09;95561.72;606472;234;66187;-66
2021/12/07 11:57:46;;;;;;;;;;;;;;;25.01;57.25;95557.91;606487;234;64935;-67
2021/12/07 12:00:15;;;;;;;;;;;;;;;25.02;56.93;95564.09;606439;234;65032;-67
2021/12/07 12:02:43;;;;;;;;;;;;;;;25.03;57.45;95563.74;606515;233;64367;-68
2021/12/07 12:05:13;;;;;;;;;;;;;;;25.05;57.31;95552.67;606438;233;64648;-68
2021/12/07 12:07:44;;;;;;;;;;;;;;;25.07;56.96;95544.27;606404;231;62992;-68
2021/12/07 12:10:12;;;;;;;;;;;;;;;25.09;57.26;95552.78;606494;234;66965;-70
2021/12/07 12:12:57;;;;;;;;;;;;;;;25.08;56.93;95552.00;606439;234;64985;-66
2021/12/07 12:15:26;;;;;;;;;;;;;;;25.10;56.94;95546.28;606444;234;64913;-67
2021/12/07 12:17:55;;;;;;;;;;;;;;;25.12;56.77;95557.49;606105;234;66876;-66
2021/12/07 12:20:27;;;;;;;;;;;;;;;25.14;56.85;95555.27;606416;234;66726;-68
2021/12/07 12:23:12;;;;;;;;;;;;;;;25.16;56.88;95555.75;606370;234;62759;-67
2021/12/07 12:25:40;;;;;;;;;;;;;;;25.16;56.71;95545.00;606544;234;67288;-67
2021/12/07 12:28:07;;;;;;;;;;;;;;;25.17;56.71;95551.94;606472;234;67195;-67
2021/12/07 12:30:39;;;;;;;;;;;;;;;25.19;56.64;95549.70;606459;234;64927;-69
2021/12/07 12:33:08;;;;;;;;;;;;;;;25.21;56.81;95556.33;606340;234;69531;-70
2021/12/07 12:35:41;;;;;;;;;;;;;;;25.23;56.45;95564.04;606392;234;66844;-69
2021/12/07 12:38:22;;;;;;;;;;;;;;;25.26;56.18;95563.38;606506;234;65027;-65
2021/12/07 12:41:00;;;;;;;;;;;;;;;25.27;55.53;95564.18;606535;234;67330;-65
2021/12/07 12:43:45;;;;;;;;;;;;;;;25.25;55.31;95572.56;606449;234;66839;-70
2021/12/07 12:46:14;;;;;;;;;;;;;;;25.25;55.54;95567.97;606563;234;65097;-64
2021/12/07 12:48:43;;;;;;;;;;;;;;;25.26;54.31;95584.88;606468;234;65051;-63
2021/12/07 12:51:10;;;;;;;;;;;;;;;25.24;54.40;95581.76;606261;234;65667;-66
2021/12/07 12:53:38;;;;;;;;;;;;;;;25.25;54.14;95573.34;607467;231;64872;-66
2021/12/07 12:56:07;;;;;;;;;;;;;;;25.26;54.07;95568.75;608067;233;67261;-67
2021/12/07 12:58:38;;;;;;;;;;;;;;;25.28;54.15;95588.03;608002;233;64844;-67
2021/12/07 13:01:24;;;;;;;;;;;;;;;25.29;54.38;95594.19;608056;233;63049;-70
2021/12/07 13:04:00;;;;;;;;;;;;;;;25.29;54.46;95586.92;607957;233;67690;-64
2021/12/07 13:06:38;;;;;;;;;;;;;;;25.32;54.49;95582.76;608139;233;64609;-64
2021/12/07 13:09:09;;;;;;;;;;;;;;;25.33;54.24;95587.82;608029;233;65039;-64
2021/12/07 13:11:39;;;;;;;;;;;;;;;25.34;54.47;95580.53;607913;233;65148;-64
2021/12/07 13:14:26;;;;;;;;;;;;;;;25.33;54.21;95590.51;608042;233;67290;-65
2021/12/07 13:16:56;;;;;;;;;;;;;;;25.35;53.95;95599.03;608106;233;62952;-64
2021/12/07 13:19:23;;;;;;;;;;;;;;;25.38;53.99;95602.96;607610;233;64861;-65
2021/12/07 13:21:51;;;;;;;;;;;;;;;25.39;53.82;95594.55;608075;233;64929;-64
2021/12/07 13:24:21;;;;;;;;;;;;;;;25.41;54.14;95611.14;608093;233;62747;-66
2021/12/07 13:26:50;;;;;;;;;;;;;;;25.39;54.70;95599.92;607694;233;67296;-65
2021/12/07 13:29:19;;;;;;;;;;;;;;;25.41;54.14;95603.07;607999;233;69118;-66
2021/12/07 13:32:00;;;;;;;;;;;;;;;25.43;53.95;95600.06;608086;233;64848;-65
2021/12/07 13:34:29;;;;;;;;;;;;;;;25.46;54.33;95605.55;608040;232;64539;-66
2021/12/07 13:36:57;;;;;;;;;;;;;;;25.49;54.60;95608.70;607951;233;66930;-66
2021/12/07 13:39:26;;;;;;;;;;;;;;;25.47;54.57;95592.88;608101;233;65050;-68
2021/12/07 13:42:05;;;;;;;;;;;;;;;25.46;55.26;95602.86;608046;233;67324;-66
2021/12/07 13:44:34;;;;;;;;;;;;;;;25.52;54.72;95602.65;608015;233;67014;-65
2021/12/07 13:47:03;;;;;;;;;;;;;;;25.48;55.25;95599.82;608030;233;64970;-70
2021/12/07 13:49:31;;;;;;;;;;;;;;;25.48;54.63;95605.20;599794;236;67344;-66
2021/12/07 13:52:00;;;;;;;;;;;;;;;25.49;54.35;95609.48;608552;233;64969;-66
2021/12/07 13:54:27;;;;;;;;;;;;;;;25.42;53.16;95617.30;609005;233;62832;-67
2021/12/07 13:56:55;;;;;;;;;;;;;;;25.46;53.38;95605.55;609040;233;67243;-66
2021/12/07 13:59:25;;;;;;;;;;;;;;;25.51;53.70;95596.48;609057;233;67016;-66
2021/12/07 14:01:54;;;;;;;;;;;;;;;25.55;54.63;95601.98;608936;233;62972;-65
2021/12/07 14:04:26;;;;;;;;;;;;;;;25.56;54.54;95598.94;608809;233;67225;-66
2021/12/07 14:06:57;;;;;;;;;;;;;;;25.57;54.82;95600.52;608905;233;49090;-68
2021/12/07 14:09:24;;;;;;;;;;;;;;;25.60;54.82;95604.45;609010;233;63792;-67
2021/12/07 14:11:54;;;;;;;;;;;;;;;25.60;54.56;95607.14;609002;233;64741;-65
2021/12/07 14:14:22;;;;;;;;;;;;;;;25.61;55.54;95609.48;608687;233;64953;-66
2021/12/07 14:16:49;;;;;;;;;;;;;;;25.60;55.41;95609.83;608996;233;62739;-65
2021/12/07 14:19:18;;;;;;;;;;;;;;;25.63;55.81;95611.85;609082;233;64950;-66
2021/12/07 14:21:46;;;;;;;;;;;;;;;25.61;56.12;95608.70;609056;233;66837;-66
2021/12/07 14:24:19;;;;;;;;;;;;;;;25.62;55.96;95602.22;609029;233;62745;-66
2021/12/07 14:26:47;;;;;;;;;;;;;;;25.62;56.26;95612.98;608966;233;67029;-67
2021/12/07 14:29:16;;;;;;;;;;;;;;;25.59;55.57;95619.81;608951;233;67180;-65
2021/12/07 14:31:48;;;;;;;;;;;;;;;25.57;55.25;95626.64;608866;233;64856;-66